Time;durP1;ratioP1;P1;durP2;ratioP2;P2;SDS_P1;SDS_P2;PMS_P1;PMS_P2;Temp;Humidity;BMP_temperature;BMP_pressure;BME280_temperature;BME280_humidity;BME280_pressure;Samples;Min_cycle;Max_cycle;Signal;HPM_P1;HPM_P2
2023/06/11 00:02:24;;;;;;;1999.90;999.90;;;;;;;16.30;100.00;94228.53;5065614;28;20226;-50
2023/06/11 00:04:50;;;;;;;1999.90;999.90;;;;;;;16.26;100.00;94222.44;5065458;28;20188;-50
2023/06/11 00:07:17;;;;;;;1999.90;999.90;;;;;;;16.22;100.00;94219.06;5065292;28;20223;-51
2023/06/11 00:09:43;;;;;;;1999.90;999.90;;;;;;;16.18;100.00;94215.72;5064706;28;20170;-54
2023/06/11 00:12:08;;;;;;;1999.90;999.90;;;;;;;16.16;100.00;94198.91;5065458;28;20176;-53
2023/06/11 00:14:33;;;;;;;1999.90;999.90;;;;;;;16.13;100.00;94197.09;5065430;28;20205;-53
2023/06/11 00:16:59;;;;;;;1999.90;999.90;;;;;;;16.11;100.00;94183.00;5065361;28;20173;-54
2023/06/11 00:19:28;;;;;;;1999.90;999.90;;;;;;;16.10;100.00;94169.72;5065284;28;20177;-54
2023/06/11 00:21:56;;;;;;;1999.90;999.90;;;;;;;16.07;100.00;94160.38;5065370;28;20200;-54
2023/06/11 00:24:22;;;;;;;1999.90;999.90;;;;;;;16.05;100.00;94151.84;5065701;28;20173;-53
2023/06/11 00:26:47;;;;;;;1999.90;999.90;;;;;;;16.05;100.00;94135.31;5065124;28;20236;-52
2023/06/11 00:29:13;;;;;;;1999.90;999.90;;;;;;;16.01;100.00;94123.72;5065066;28;20206;-52
2023/06/11 00:31:38;;;;;;;1999.90;999.90;;;;;;;15.98;100.00;94110.88;5065347;28;20174;-53
2023/06/11 00:34:04;;;;;;;1999.90;999.90;;;;;;;15.97;100.00;94095.59;5065017;28;20181;-53
2023/06/11 00:36:29;;;;;;;1999.90;999.90;;;;;;;15.93;100.00;94078.50;5065021;28;20241;-53
2023/06/11 00:38:55;;;;;;;1999.90;999.90;;;;;;;15.92;100.00;94068.69;5065225;28;20233;-53
2023/06/11 00:41:21;;;;;;;1999.90;999.90;;;;;;;15.91;100.00;94052.63;5065294;28;20174;-54
2023/06/11 00:43:52;;;;;;;1999.90;999.90;;;;;;;15.89;100.00;93543.75;5064770;28;20177;-53
2023/06/11 00:46:18;;;;;;;1999.90;999.90;;;;;;;15.87;100.00;93528.94;5065237;28;20193;-53
2023/06/11 00:48:44;;;;;;;1999.90;999.90;;;;;;;15.85;100.00;93520.44;5065280;28;20174;-51
2023/06/11 00:51:10;;;;;;;1999.90;999.90;;;;;;;15.84;100.00;93511.41;5064724;28;20166;-53
2023/06/11 00:53:36;;;;;;;1999.90;999.90;;;;;;;15.82;100.00;93500.13;5065214;28;20344;-53
2023/06/11 00:56:02;;;;;;;1999.90;999.90;;;;;;;15.80;100.00;93497.09;5064567;28;20236;-51
2023/06/11 00:58:29;;;;;;;1999.90;999.90;;;;;;;15.78;100.00;93491.31;5064533;28;20174;-53
2023/06/11 01:00:57;;;;;;;1999.90;999.90;;;;;;;15.71;100.00;93483.50;5065089;28;20174;-54
2023/06/11 01:03:27;;;;;;;1999.90;999.90;;;;;;;15.68;100.00;93472.66;5064263;28;20225;-54
2023/06/11 01:06:13;;;;;;;1999.90;999.90;;;;;;;-143.11;100.00;65634.97;5064332;28;20219;-52
2023/06/11 01:08:39;;;;;;;1999.90;999.90;;;;;;;-143.11;100.00;65634.97;5064895;28;20165;-54
2023/06/11 01:11:09;;;;;;;1999.90;999.90;;;;;;;-143.11;100.00;65634.97;5064898;28;20173;-52
2023/06/11 01:13:36;;;;;;;1999.90;999.90;;;;;;;-143.11;100.00;65634.97;5064264;28;20174;-54
2023/06/11 01:16:11;;;;;;;1999.90;999.90;;;;;;;-143.11;100.00;65634.97;5064271;28;20181;-53
2023/06/11 01:18:47;;;;;;;1999.90;999.90;;;;;;;-143.11;100.00;65634.97;5064454;28;20177;-52
2023/06/11 01:21:17;;;;;;;1999.90;999.90;;;;;;;-143.11;100.00;65634.97;5063363;28;20169;-54
2023/06/11 01:23:55;;;;;;;1999.90;999.90;;;;;;;-143.11;100.00;65634.97;5064261;28;20173;-53
2023/06/11 01:26:39;;;;;;;1999.90;999.90;;;;;;;-143.11;100.00;65634.97;5064787;28;20201;-51
2023/06/11 01:29:09;;;;;;;1999.90;999.90;;;;;;;-143.11;100.00;65634.97;5064584;28;20174;-52
2023/06/11 01:31:38;;;;;;;1999.90;999.90;;;;;;;-143.11;100.00;65634.97;5063767;28;20178;-53
2023/06/11 01:34:04;;;;;;;1999.90;999.90;;;;;;;-143.11;100.00;65634.97;5064448;28;20174;-52
2023/06/11 01:36:34;;;;;;;1999.90;999.90;;;;;;;-143.11;100.00;65634.97;5064292;28;20177;-54
2023/06/11 01:39:01;;;;;;;1999.90;999.90;;;;;;;-143.11;100.00;65634.97;5064375;28;20170;-53
2023/06/11 01:41:27;;;;;;;1999.90;999.90;;;;;;;-143.11;100.00;65634.97;5063981;28;20184;-51
2023/06/11 01:43:53;;;;;;;1999.90;999.90;;;;;;;-143.11;100.00;65634.97;5064653;28;20178;-52
2023/06/11 01:46:18;;;;;;;1999.90;999.90;;;;;;;-143.11;100.00;65634.97;5063697;28;20209;-53
2023/06/11 01:48:43;;;;;;;1999.90;999.90;;;;;;;-143.11;100.00;65634.97;5063731;28;20177;-52
2023/06/11 01:51:09;;;;;;;1999.90;999.90;;;;;;;-143.11;100.00;65634.97;5064268;28;20166;-52
2023/06/11 01:53:34;;;;;;;1999.90;999.90;;;;;;;-143.11;100.00;65634.97;5063733;28;20229;-53
2023/06/11 01:56:00;;;;;;;1999.90;999.90;;;;;;;-143.11;100.00;65634.97;5063743;28;20188;-54
2023/06/11 01:58:26;;;;;;;1999.90;999.90;;;;;;;-143.11;100.00;65634.97;5063723;28;20216;-53
2023/06/11 02:00:51;;;;;;;1999.90;999.90;;;;;;;-143.11;100.00;65634.97;5064241;28;20174;-55
2023/06/11 02:03:17;;;;;;;1999.90;999.90;;;;;;;-143.11;100.00;65634.97;5063851;28;20226;-53
2023/06/11 02:05:43;;;;;;;1999.90;999.90;;;;;;;-143.11;100.00;65634.97;5064117;28;20245;-52
2023/06/11 02:08:10;;;;;;;1999.90;999.90;;;;;;;-143.11;100.00;65634.97;5063951;28;20202;-53
2023/06/11 02:10:36;;;;;;;1999.90;999.90;;;;;;;-143.11;100.00;65634.97;5063560;28;20169;-51
2023/06/11 02:13:01;;;;;;;1999.90;999.90;;;;;;;-143.11;100.00;65634.97;5064066;28;20166;-54
2023/06/11 02:15:26;;;;;;;1999.90;999.90;;;;;;;-143.11;100.00;65634.97;5064079;28;20169;-50
2023/06/11 02:17:52;;;;;;;1999.90;999.90;;;;;;;-143.11;100.00;65634.97;5063449;28;20233;-52
2023/06/11 02:20:17;;;;;;;1999.90;999.90;;;;;;;-143.11;100.00;65634.97;5063462;28;20166;-54
2023/06/11 02:22:42;;;;;;;1999.90;999.90;;;;;;;-143.11;100.00;65634.97;5063430;28;20170;-52
2023/06/11 02:25:08;;;;;;;1999.90;999.90;;;;;;;-143.11;100.00;65634.97;5063554;28;20174;-54
2023/06/11 02:27:33;;;;;;;1999.90;999.90;;;;;;;-143.11;100.00;65634.97;5063362;28;20201;-55
2023/06/11 02:29:59;;;;;;;1999.90;999.90;;;;;;;-143.11;100.00;65634.97;5063391;28;20248;-53
2023/06/11 02:32:26;;;;;;;1999.90;999.90;;;;;;;-143.11;100.00;65634.97;5065827;28;20166;-55
2023/06/11 02:34:51;;;;;;;1999.90;999.90;;;;;;;-143.11;100.00;65634.97;5067355;28;20170;-54
2023/06/11 02:37:17;;;;;;;1999.90;999.90;;;;;;;-143.11;100.00;65634.97;5067245;28;20197;-54
2023/06/11 02:39:42;;;;;;;1999.90;999.90;;;;;;;-143.11;100.00;65634.97;5067231;28;20174;-55
2023/06/11 02:42:08;;;;;;;1999.90;999.90;;;;;;;-143.11;100.00;65634.97;5067014;28;20219;-54
2023/06/11 02:44:34;;;;;;;1999.90;999.90;;;;;;;-143.11;100.00;65634.97;5067701;28;20180;-55
2023/06/11 02:47:00;;;;;;;1999.90;999.90;;;;;;;-143.11;100.00;65634.97;5067477;28;20194;-56
2023/06/11 02:49:25;;;;;;;1999.90;999.90;;;;;;;-143.11;100.00;65634.97;5066999;28;20245;-53
2023/06/11 02:51:50;;;;;;;1999.90;999.90;;;;;;;-143.11;100.00;65634.97;5066982;28;20166;-54
2023/06/11 02:54:16;;;;;;;1999.90;999.90;;;;;;;-143.11;100.00;65634.97;5066970;28;20170;-53
2023/06/11 02:56:41;;;;;;;1999.90;999.90;;;;;;;-143.11;100.00;65634.97;5067353;28;20170;-54
2023/06/11 02:59:06;;;;;;;1999.90;999.90;;;;;;;-143.11;100.00;65634.97;5066804;28;20240;-51
2023/06/11 03:01:32;;;;;;;1999.90;999.90;;;;;;;-143.11;100.00;65634.97;5066728;28;20170;-54
2023/06/11 03:03:57;;;;;;;1999.90;999.90;;;;;;;-143.11;100.00;65634.97;5066789;28;20222;-53
2023/06/11 03:06:22;;;;;;;1999.90;999.90;;;;;;;-143.11;100.00;65634.97;5066558;28;20205;-54
2023/06/11 03:08:48;;;;;;;1999.90;999.90;;;;;;;-143.11;100.00;65634.97;5066658;28;20170;-54
2023/06/11 03:11:14;;;;;;;1999.90;999.90;;;;;;;-143.11;100.00;65634.97;5066748;28;20224;-54
2023/06/11 03:13:40;;;;;;;1999.90;999.90;;;;;;;-143.11;100.00;65634.97;5067097;28;20238;-54
2023/06/11 03:16:05;;;;;;;1999.90;999.90;;;;;;;-143.11;100.00;65634.97;5066484;28;20173;-52
2023/06/11 03:18:30;;;;;;;1999.90;999.90;;;;;;;-143.11;100.00;65634.97;5066527;28;20206;-54
2023/06/11 03:20:56;;;;;;;1999.90;999.90;;;;;;;-143.11;100.00;65634.97;5067134;28;20182;-54
2023/06/11 03:23:21;;;;;;;1999.90;999.90;;;;;;;-143.11;100.00;65634.97;5066947;28;20170;-54
2023/06/11 03:25:47;;;;;;;1999.90;999.90;;;;;;;-143.11;100.00;65634.97;5065949;28;20176;-54
2023/06/11 03:28:12;;;;;;;1999.90;999.90;;;;;;;-143.11;100.00;65634.97;5066481;28;20251;-55
2023/06/11 03:30:38;;;;;;;1999.90;999.90;;;;;;;-143.11;100.00;65634.97;5066298;28;20170;-51
2023/06/11 03:33:03;;;;;;;1999.90;999.90;;;;;;;-143.11;100.00;65634.97;5066155;28;20178;-55
2023/06/11 03:35:28;;;;;;;1999.90;999.90;;;;;;;-143.11;100.00;65634.97;5066640;28;20181;-52
2023/06/11 03:37:54;;;;;;;1999.90;999.90;;;;;;;-143.11;100.00;65634.97;5066475;28;20177;-54
2023/06/11 03:40:19;;;;;;;1999.90;999.90;;;;;;;-143.11;100.00;65634.97;5066003;28;20249;-51
2023/06/11 03:42:44;;;;;;;1999.90;999.90;;;;;;;-143.11;100.00;65634.97;5065738;28;20172;-52
2023/06/11 03:45:10;;;;;;;1999.90;999.90;;;;;;;-143.11;100.00;65634.97;5065475;28;20194;-52
2023/06/11 03:47:35;;;;;;;1999.90;999.90;;;;;;;-143.11;100.00;65634.97;5065929;28;20197;-53
2023/06/11 03:50:01;;;;;;;1999.90;999.90;;;;;;;-143.11;100.00;65634.97;5065761;28;20192;-55
2023/06/11 03:52:26;;;;;;;1999.90;999.90;;;;;;;-143.11;100.00;65634.97;5066412;28;20170;-53
2023/06/11 03:54:51;;;;;;;1999.90;999.90;;;;;;;-143.11;100.00;65634.97;5066266;28;20194;-56
2023/06/11 03:57:20;;;;;;;1999.90;999.90;;;;;;;-143.11;100.00;65634.97;5065749;28;20169;-54
2023/06/11 03:59:45;;;;;;;1999.90;999.90;;;;;;;-143.11;100.00;65634.97;5065568;28;20173;-53
2023/06/11 04:02:10;;;;;;;1999.90;999.90;;;;;;;-143.11;100.00;65634.97;5065405;28;20189;-55
2023/06/11 04:04:36;;;;;;;1999.90;999.90;;;;;;;-143.11;100.00;65634.97;5066187;28;20185;-55
2023/06/11 04:07:02;;;;;;;1999.90;999.90;;;;;;;-143.11;100.00;65634.97;5065484;28;20209;-55
2023/06/11 04:09:27;;;;;;;1999.90;999.90;;;;;;;-143.11;100.00;65634.97;5065175;28;20215;-53
2023/06/11 04:11:53;;;;;;;1999.90;999.90;;;;;;;-143.11;100.00;65634.97;5065429;28;20177;-55
2023/06/11 04:14:18;;;;;;;1999.90;999.90;;;;;;;-143.11;100.00;65634.97;5066046;28;20181;-53
2023/06/11 04:16:43;;;;;;;1999.90;999.90;;;;;;;-143.11;100.00;65634.97;5065608;28;20170;-54
2023/06/11 04:19:09;;;;;;;1999.90;999.90;;;;;;;-143.11;100.00;65634.97;5084497;28;20177;-55
2023/06/11 04:21:35;;;;;;;1999.90;999.90;;;;;;;-143.11;100.00;65634.97;5084954;28;20248;-52
2023/06/11 04:24:00;;;;;;;1999.90;999.90;;;;;;;-143.11;100.00;65634.97;5084911;28;20177;-54
2023/06/11 04:26:26;;;;;;;1999.90;999.90;;;;;;;-143.11;100.00;65634.97;5067624;28;20250;-53
2023/06/11 04:28:52;;;;;;;1999.90;999.90;;;;;;;-143.11;100.00;65634.97;5084478;28;20223;-51
2023/06/11 04:31:18;;;;;;;1999.90;999.90;;;;;;;-143.11;100.00;65634.97;5084179;28;20243;-55
2023/06/11 04:33:45;;;;;;;1999.90;999.90;;;;;;;-143.11;100.00;65634.97;5084218;28;20197;-54
2023/06/11 04:36:11;;;;;;;1999.90;999.90;;;;;;;-143.11;100.00;65634.97;5068112;28;20207;-54
2023/06/11 04:38:37;;;;;;;1999.90;999.90;;;;;;;-143.11;100.00;65634.97;5067943;28;20255;-53
2023/06/11 04:41:08;;;;;;;1999.90;999.90;;;;;;;-143.11;100.00;65634.97;5084636;28;20240;-53
2023/06/11 04:43:34;;;;;;;1999.90;999.90;;;;;;;-143.11;100.00;65634.97;5067892;28;20173;-52
2023/06/11 04:46:00;;;;;;;1999.90;999.90;;;;;;;-143.11;100.00;65634.97;5067258;28;20205;-54
2023/06/11 04:48:28;;;;;;;1999.90;999.90;;;;;;;15.68;100.00;93472.66;5083959;28;20169;-55
2023/06/11 04:50:54;;;;;;;1999.90;999.90;;;;;;;15.68;100.00;93472.66;5065137;28;20186;-54
2023/06/11 04:53:23;;;;;;;1999.90;999.90;;;;;;;15.68;100.00;93472.66;5065443;28;20166;-54
2023/06/11 04:55:54;;;;;;;1999.90;999.90;;;;;;;15.68;100.00;93472.66;5064847;28;20305;-54
2023/06/11 04:58:27;;;;;;;1999.90;999.90;;;;;;;15.68;100.00;93472.66;5064502;28;20166;-54
2023/06/11 05:00:57;;;;;;;1999.90;999.90;;;;;;;15.68;100.00;93472.66;5065166;28;20280;-55
2023/06/11 05:03:27;;;;;;;1999.90;999.90;;;;;;;15.68;100.00;93472.66;5064302;28;20226;-55
2023/06/11 05:05:54;;;;;;;1999.90;999.90;;;;;;;15.68;100.00;93472.66;5064523;28;20322;-53
2023/06/11 05:08:28;;;;;;;1999.90;999.90;;;;;;;15.68;100.00;93472.66;5064340;28;20174;-55
2023/06/11 05:10:54;;;;;;;1999.90;999.90;;;;;;;15.68;100.00;93472.66;5064412;28;20197;-57
2023/06/11 05:13:24;;;;;;;1999.90;999.90;;;;;;;22.27;100.00;95195.31;5064284;28;20239;-56
2023/06/11 05:15:55;;;;;;;1999.90;999.90;;;;;;;22.94;100.00;95219.28;5064352;28;20223;-53
2023/06/11 05:18:20;;;;;;;1999.90;999.90;;;;;;;22.44;100.00;95231.75;5064677;28;20176;-52
2023/06/11 05:20:48;;;;;;;1999.90;999.90;;;;;;;21.65;100.00;95230.16;5064704;28;20188;-54
2023/06/11 05:23:14;;;;;;;1999.90;999.90;;;;;;;21.08;100.00;95229.59;5063882;28;20162;-57
2023/06/11 05:25:46;;;;;;;1999.90;999.90;;;;;;;20.87;100.00;95225.09;5063777;28;20166;-53
2023/06/11 05:28:12;;;;;;;1999.90;999.90;;;;;;;21.01;100.00;95223.66;5064767;28;20239;-53
2023/06/11 05:30:38;;;;;;;1999.90;999.90;;;;;;;20.69;100.00;95216.91;5064030;28;20174;-50
2023/06/11 05:33:05;;;;;;;1999.90;999.90;;;;;;;21.06;100.00;95207.13;5064403;28;20161;-52
2023/06/11 05:35:30;;;;;;;1999.90;999.90;;;;;;;21.94;100.00;95219.06;5063967;28;20170;-53
2023/06/11 05:37:57;;;;;;;1999.90;999.90;;;;;;;22.21;100.00;95233.44;5063924;28;20200;-56
2023/06/11 05:40:23;;;;;;;1999.90;999.90;;;;;;;22.25;100.00;95242.34;5063406;28;20197;-59
2023/06/11 05:42:48;;;;;;;1999.90;999.90;;;;;;;22.21;100.00;95247.34;5064467;28;20166;-58
2023/06/11 05:45:14;;;;;;;1999.90;999.90;;;;;;;21.76;100.00;95245.06;5064008;28;20166;-58
2023/06/11 05:47:39;;;;;;;1999.90;999.90;;;;;;;21.77;100.00;95246.59;5064173;28;20194;-58
2023/06/11 05:50:06;;;;;;;1999.90;999.90;;;;;;;21.84;100.00;95240.66;5064320;28;20166;-57
2023/06/11 05:52:31;;;;;;;1999.90;999.90;;;;;;;22.06;100.00;95246.59;5064327;28;20196;-54
2023/06/11 05:54:56;;;;;;;1999.90;999.90;;;;;;;22.05;100.00;95249.84;5063623;28;20249;-57
2023/06/11 05:57:25;;;;;;;1999.90;999.90;;;;;;;22.29;100.00;95242.91;5063630;28;20166;-57
2023/06/11 05:59:51;;;;;;;1999.90;999.90;;;;;;;22.35;100.00;95252.13;5063895;28;20162;-56
2023/06/11 06:02:17;;;;;;;1999.90;999.90;;;;;;;22.75;100.00;95247.88;5063191;28;20182;-56
2023/06/11 06:04:46;;;;;;;1999.90;999.90;;;;;;;22.97;100.00;95253.75;5064150;28;20170;-56
2023/06/11 06:07:12;;;;;;;1999.90;999.90;;;;;;;21.97;100.00;95260.59;5065690;28;20284;-56
2023/06/11 06:09:37;;;;;;;1999.90;999.90;;;;;;;22.26;100.00;95255.00;5068167;28;20170;-55
2023/06/11 06:12:02;;;;;;;1999.90;999.90;;;;;;;22.44;100.00;95260.34;5067697;28;20161;-55
2023/06/11 06:14:28;;;;;;;1999.90;999.90;;;;;;;23.67;100.00;95260.72;5067265;28;20237;-55
2023/06/11 06:16:53;;;;;;;1999.90;999.90;;;;;;;23.47;100.00;95267.09;5067617;28;20166;-55
2023/06/11 06:19:18;;;;;;;1999.90;999.90;;;;;;;23.98;100.00;95271.94;5067530;28;20197;-57
2023/06/11 06:21:44;;;;;;;1999.90;999.90;;;;;;;23.44;100.00;95267.28;5067521;28;20177;-56
2023/06/11 06:24:11;;;;;;;1999.90;999.90;;;;;;;23.17;100.00;95276.06;5067477;28;20166;-53
2023/06/11 06:26:40;;;;;;;1999.90;999.90;;;;;;;23.87;100.00;95274.59;5067840;28;20197;-54
2023/06/11 06:29:09;;;;;;;1999.90;999.90;;;;;;;23.95;100.00;95278.50;5067275;28;20207;-53
2023/06/11 06:31:36;;;;;;;1999.90;999.90;;;;;;;22.50;100.00;95290.31;5067932;28;20177;-56
2023/06/11 06:34:02;;;;;;;1999.90;999.90;;;;;;;23.20;100.00;95287.00;5067795;28;20177;-55
2023/06/11 06:36:28;;;;;;;1999.90;999.90;;;;;;;23.76;100.00;95294.00;5067535;28;20170;-53
2023/06/11 06:38:53;;;;;;;1999.90;999.90;;;;;;;23.84;100.00;95289.53;5067153;28;20169;-53
2023/06/11 06:41:19;;;;;;;1999.90;999.90;;;;;;;24.12;100.00;95282.22;5067206;28;20170;-54
2023/06/11 06:43:44;;;;;;;1999.90;999.90;;;;;;;23.69;100.00;95286.06;5067928;28;20166;-53
2023/06/11 06:46:10;;;;;;;1999.90;999.90;;;;;;;24.48;100.00;95298.28;5067529;28;20177;-53
2023/06/11 06:48:35;;;;;;;1999.90;999.90;;;;;;;24.40;100.00;95286.78;5066975;28;20215;-56
2023/06/11 06:51:00;;;;;;;1999.90;999.90;;;;;;;24.38;100.00;95294.13;5066924;28;20169;-53
2023/06/11 06:53:26;;;;;;;1999.90;999.90;;;;;;;24.27;100.00;95296.81;5066801;28;20170;-54
2023/06/11 06:55:52;;;;;;;1999.90;999.90;;;;;;;24.63;100.00;95310.09;5066904;28;20166;-55
2023/06/11 06:58:17;;;;;;;1999.90;999.90;;;;;;;25.06;100.00;95298.44;5066771;28;20181;-55
2023/06/11 07:00:44;;;;;;;1999.90;999.90;;;;;;;24.33;100.00;95303.22;5066844;28;20177;-54
2023/06/11 07:03:12;;;;;;;1999.90;999.90;;;;;;;23.37;100.00;95306.75;5066900;28;20217;-52
2023/06/11 07:05:37;;;;;;;1999.90;999.90;;;;;;;22.78;100.00;95306.19;5067539;28;20246;-54
2023/06/11 07:08:03;;;;;;;1999.90;999.90;;;;;;;22.37;100.00;95305.28;5066660;28;20189;-55
2023/06/11 07:10:30;;;;;;;1999.90;999.90;;;;;;;22.22;100.00;95298.22;5066650;28;20170;-53
2023/06/11 07:12:55;;;;;;;1999.90;999.90;;;;;;;22.32;100.00;95302.41;5066542;28;20249;-56
2023/06/11 07:15:20;;;;;;;1999.90;999.90;;;;;;;21.85;100.00;95303.38;5067292;28;20162;-54
2023/06/11 07:17:46;;;;;;;1999.90;999.90;;;;;;;23.07;100.00;95299.75;5066349;28;20170;-55
2023/06/11 07:20:12;;;;;;;1999.90;999.90;;;;;;;22.81;100.00;95307.22;5066334;28;20162;-53
2023/06/11 07:22:37;;;;;;;1999.90;999.90;;;;;;;24.40;100.00;95292.38;5066449;28;20166;-54
2023/06/11 07:25:03;;;;;;;1999.90;999.90;;;;;;;24.84;100.00;95308.72;5066485;28;20170;-54
2023/06/11 07:27:28;;;;;;;1999.90;999.90;;;;;;;25.74;100.00;95297.50;5066178;28;20196;-55
2023/06/11 07:29:54;;;;;;;1999.90;999.90;;;;;;;25.03;100.00;95315.44;5066045;28;20200;-55
2023/06/11 07:32:19;;;;;;;1999.90;999.90;;;;;;;25.68;100.00;95308.66;5066139;28;20166;-56
2023/06/11 07:34:44;;;;;;;1999.90;999.90;;;;;;;24.98;100.00;95307.78;5066186;28;20269;-56
2023/06/11 07:37:10;;;;;;;1999.90;999.90;;;;;;;24.62;100.00;95306.53;5066037;28;20216;-55
2023/06/11 07:39:35;;;;;;;1999.90;999.90;;;;;;;25.48;100.00;95314.44;5066023;28;20198;-55
2023/06/11 07:42:00;;;;;;;1999.90;999.90;;;;;;;26.47;100.00;95306.28;5066233;28;20245;-50
2023/06/11 07:44:26;;;;;;;1999.90;999.90;;;;;;;25.45;100.00;95314.69;5066213;28;20177;-54
2023/06/11 07:46:51;;;;;;;1999.90;999.90;;;;;;;25.23;100.00;95315.28;5065875;28;20193;-54
2023/06/11 07:49:17;;;;;;;1999.90;999.90;;;;;;;24.52;100.00;95307.19;5066582;28;20170;-57
2023/06/11 07:51:44;;;;;;;1999.90;999.90;;;;;;;24.55;100.00;95314.59;5065733;28;20166;-56
2023/06/11 07:54:11;;;;;;;1999.90;999.90;;;;;;;24.99;100.00;95309.31;5066497;28;20170;-55
2023/06/11 07:56:37;;;;;;;1999.90;999.90;;;;;;;24.89;100.00;95316.38;5066184;28;20170;-55
2023/06/11 07:59:02;;;;;;;1999.90;999.90;;;;;;;25.72;100.00;95306.41;5065693;28;20172;-56
2023/06/11 08:01:28;;;;;;;1999.90;999.90;;;;;;;25.27;100.00;95313.03;5066107;28;20174;-56
2023/06/11 08:03:53;;;;;;;1999.90;999.90;;;;;;;25.57;100.00;95314.22;5065874;28;20241;-56
2023/06/11 08:06:18;;;;;;;1999.90;999.90;;;;;;;23.98;100.00;95311.00;5065433;28;20201;-55
2023/06/11 08:08:43;;;;;;;1999.90;999.90;;;;;;;23.51;100.00;95317.06;5065558;28;20219;-55
2023/06/11 08:11:09;;;;;;;1999.90;999.90;;;;;;;23.98;100.00;95299.84;5065431;28;20166;-55
2023/06/11 08:13:34;;;;;;;1999.90;999.90;;;;;;;24.46;100.00;95295.97;5065518;28;20177;-55
2023/06/11 08:16:01;;;;;;;1999.90;999.90;;;;;;;24.96;100.00;95304.72;5065376;28;20166;-57
2023/06/11 08:18:26;;;;;;;1999.90;999.90;;;;;;;25.79;100.00;95303.09;5065311;28;20170;-57
2023/06/11 08:20:53;;;;;;;1999.90;999.90;;;;;;;25.56;100.00;95309.88;5065006;28;20166;-56
2023/06/11 08:23:18;;;;;;;1999.90;999.90;;;;;;;24.75;100.00;95306.13;5065662;28;20169;-57
2023/06/11 08:25:44;;;;;;;1999.90;999.90;;;;;;;24.88;100.00;95307.22;5065209;28;20173;-57
2023/06/11 08:28:09;;;;;;;1999.90;999.90;;;;;;;24.75;100.00;95300.53;5065103;28;20198;-55
2023/06/11 08:30:35;;;;;;;1999.90;999.90;;;;;;;24.55;100.00;95303.41;5065063;28;20196;-56
2023/06/11 08:33:00;;;;;;;1999.90;999.90;;;;;;;24.58;100.00;95302.41;5065025;28;20170;-55
2023/06/11 08:35:25;;;;;;;1999.90;999.90;;;;;;;25.57;100.00;95305.06;5064942;28;20170;-56
2023/06/11 08:37:51;;;;;;;1999.90;999.90;;;;;;;24.92;100.00;95315.38;5065002;28;20216;-56
2023/06/11 08:40:16;;;;;;;1999.90;999.90;;;;;;;25.17;100.00;95304.09;5065456;28;20170;-56
2023/06/11 08:42:42;;;;;;;1999.90;999.90;;;;;;;23.51;100.00;95315.03;5065443;28;20170;-54
2023/06/11 08:45:08;;;;;;;1999.90;999.90;;;;;;;23.59;100.00;95301.41;5064694;28;20169;-55
2023/06/11 08:47:38;;;;;;;1999.90;999.90;;;;;;;24.27;100.00;95294.81;5065168;28;20197;-56
2023/06/11 08:50:05;;;;;;;1999.90;999.90;;;;;;;24.01;100.00;95298.88;5065186;28;20170;-54
2023/06/11 08:52:33;;;;;;;1999.90;999.90;;;;;;;24.39;100.00;95306.81;5064530;28;20172;-55
2023/06/11 08:54:59;;;;;;;1999.90;999.90;;;;;;;24.49;100.00;95308.94;5064650;28;20192;-56
2023/06/11 08:57:25;;;;;;;1999.90;999.90;;;;;;;24.36;100.00;95299.47;5064502;28;20170;-55
2023/06/11 08:59:50;;;;;;;1999.90;999.90;;;;;;;24.55;100.00;95309.75;5064614;28;20211;-56
2023/06/11 09:02:17;;;;;;;1999.90;999.90;;;;;;;24.86;100.00;95303.38;5064210;28;20197;-56
2023/06/11 09:04:43;;;;;;;1999.90;999.90;;;;;;;25.56;100.00;95309.88;5065072;28;20170;-56
2023/06/11 09:07:09;;;;;;;1999.90;999.90;;;;;;;26.06;100.00;95305.22;5065064;28;20201;-56
2023/06/11 09:09:35;;;;;;;1999.90;999.90;;;;;;;26.18;100.00;95312.38;5064934;28;20169;-55
2023/06/11 09:12:06;;;;;;;1999.90;999.90;;;;;;;24.71;100.00;95330.72;5064804;28;20172;-55
2023/06/11 09:14:31;;;;;;;1999.90;999.90;;;;;;;24.66;100.00;95311.91;5064709;28;20169;-55
2023/06/11 09:16:57;;;;;;;1999.90;999.90;;;;;;;25.43;100.00;95312.38;5064230;28;20200;-56
2023/06/11 09:19:22;;;;;;;1999.90;999.90;;;;;;;26.74;100.00;95307.59;5064383;28;20256;-56
2023/06/11 09:21:53;;;;;;;1999.90;999.90;;;;;;;26.71;100.00;95306.56;5064213;28;20170;-56
2023/06/11 09:24:19;;;;;;;1999.90;999.90;;;;;;;27.99;100.00;95302.13;5064034;28;20162;-53
2023/06/11 09:26:53;;;;;;;1999.90;999.90;;;;;;;26.21;100.00;95311.34;5064051;28;20197;-54
2023/06/11 09:29:20;;;;;;;1999.90;999.90;;;;;;;26.26;100.00;95330.19;5064644;28;20173;-54
2023/06/11 09:31:45;;;;;;;1999.90;999.90;;;;;;;25.43;100.00;95309.59;5063742;28;20173;-55
2023/06/11 09:34:12;;;;;;;1999.90;999.90;;;;;;;25.17;100.00;95308.94;5064179;28;20205;-53
2023/06/11 09:36:38;;;;;;;1999.90;999.90;;;;;;;24.29;100.00;95320.19;5064403;28;20170;-57
2023/06/11 09:39:03;;;;;;;1999.90;999.90;;;;;;;25.27;100.00;95313.03;5064063;28;20170;-56
2023/06/11 09:41:29;;;;;;;1999.90;999.90;;;;;;;25.18;100.00;95314.03;5063480;28;20169;-56
2023/06/11 09:43:54;;;;;;;1999.90;999.90;;;;;;;25.24;100.00;95314.06;5063834;28;20177;-56
2023/06/11 09:46:21;;;;;;;1999.90;999.90;;;;;;;25.51;100.00;95313.44;5063824;28;20170;-55
2023/06/11 09:48:48;;;;;;;1999.90;999.90;;;;;;;25.14;100.00;95332.28;5063732;28;20245;-55
2023/06/11 09:51:14;;;;;;;1999.90;999.90;;;;;;;24.86;100.00;95322.94;5063776;28;20166;-53
2023/06/11 09:53:41;;;;;;;1999.90;999.90;;;;;;;25.12;100.00;95329.22;5064142;28;20192;-54
2023/06/11 09:56:06;;;;;;;1999.90;999.90;;;;;;;24.97;100.00;95323.03;5063599;28;20162;-55
2023/06/11 09:58:33;;;;;;;1999.90;999.90;;;;;;;25.49;100.00;95327.16;5064254;28;20170;-53
2023/06/11 10:01:00;;;;;;;1999.90;999.90;;;;;;;26.54;100.00;95319.00;5063491;28;20249;-55
2023/06/11 10:03:30;;;;;;;1999.90;999.90;;;;;;;25.15;100.00;95328.22;5063529;28;20232;-52
2023/06/11 10:05:56;;;;;;;1999.90;999.90;;;;;;;26.61;100.00;95321.34;5064085;28;20246;-54
2023/06/11 10:08:24;;;;;;;1999.90;999.90;;;;;;;27.18;91.07;95319.50;5063547;28;20194;-55
2023/06/11 10:10:56;;;;;;;1999.90;999.90;;;;;;;27.16;86.27;95324.06;5064038;28;20166;-54
2023/06/11 10:13:29;;;;;;;1999.90;999.90;;;;;;;26.19;93.59;95319.50;5063176;28;20204;-55
2023/06/11 10:15:55;;;;;;;1999.90;999.90;;;;;;;26.21;100.00;95305.75;5064270;28;20174;-54
2023/06/11 10:18:26;;;;;;;1999.90;999.90;;;;;;;25.99;100.00;95322.50;5063438;28;20182;-54
2023/06/11 10:20:53;;;;;;;1999.90;999.90;;;;;;;25.72;97.15;95320.38;5064054;28;20166;-55
2023/06/11 10:23:20;;;;;;;1999.90;999.90;;;;;;;24.97;100.00;95311.84;5063387;28;20169;-54
2023/06/11 10:25:53;;;;;;;1999.90;999.90;;;;;;;25.31;100.00;95313.56;5063459;28;20178;-54
2023/06/11 10:28:18;;;;;;;1999.90;999.90;;;;;;;25.20;100.00;95314.28;5064092;28;20197;-57
2023/06/11 10:30:53;;;;;;;1999.90;999.90;;;;;;;25.97;98.12;95325.06;5063814;28;20170;-57
2023/06/11 10:33:20;;;;;;;1999.90;999.90;;;;;;;25.86;96.02;95335.44;5062984;28;20166;-57
2023/06/11 10:35:46;;;;;;;1999.90;999.90;;;;;;;26.56;92.84;95311.66;5063658;28;20170;-55
2023/06/11 10:38:13;;;;;;;1999.90;999.90;;;;;;;26.55;95.41;95310.09;5063345;28;20173;-57
2023/06/11 10:40:39;;;;;;;1999.90;999.90;;;;;;;26.85;87.37;95330.00;5063294;28;20169;-58